Ashby, Minnesota
Current Conditions -  °F | °C
As of 12:54 PM on Wednesday 26 Nov 2014 (Local Time) from KFFM Reporting Station
Scattered Clouds Scattered Clouds  
Wind Chill: -4°   Ceiling: Unl
Heat Index: 10°   Visibility: 10mi
Dew Point:   Wind: 12mph
Humidity: 67%   Direction: 10°N
Pressure: 30.34"   Gusts: 26mph
Location:  46.09°N, 95.82°W
Report Text: KFFM 261854Z AUTO 01010G23KT 10SM SCT060 SCT085 M12/M17 A3034 RMK AO2
Loading
Personal Weather Stations






























Interactive Weather Map New forecast layout! Learn more

10-Day Weather Forecast

Advertisements
Track Severe Weather on mobile